createdAt,value
2023-04-23T00:04:44.864Z,101132.16
2023-04-23T00:09:47.768Z,101129.47
2023-04-23T00:14:50.575Z,101121.00
2023-04-23T00:19:52.671Z,101125.97
2023-04-23T00:24:54.679Z,101121.88
2023-04-23T00:29:56.802Z,101120.22
2023-04-23T00:34:58.714Z,101118.03
2023-04-23T00:40:01.193Z,101110.06
2023-04-23T00:45:03.730Z,101102.38
2023-04-23T00:50:06.683Z,101106.53
2023-04-23T00:55:09.257Z,101112.88
2023-04-23T01:05:16.121Z,101113.69
2023-04-23T01:15:15.650Z,101115.63
2023-04-23T01:20:17.991Z,101124.69
2023-04-23T01:25:20.157Z,101123.06
2023-04-23T01:30:22.592Z,101114.28
2023-04-23T01:35:25.630Z,101117.63
2023-04-23T01:40:27.965Z,101109.44
2023-04-23T01:45:31.411Z,101116.97
2023-04-23T01:50:33.798Z,101117.84
2023-04-23T01:55:41.355Z,101118.75
2023-04-23T02:00:43.790Z,101120.16
2023-04-23T02:05:46.834Z,101122.91
2023-04-23T02:10:49.825Z,101116.28
2023-04-23T02:15:52.056Z,101114.34
2023-04-23T02:22:47.356Z,101119.03
2023-04-23T02:27:49.886Z,101123.19
2023-04-23T02:32:52.196Z,101132.56
2023-04-23T02:42:46.491Z,101130.91
2023-04-23T02:47:48.718Z,101145.50
2023-04-23T02:52:50.782Z,101135.84
2023-04-23T02:57:52.970Z,101136.34
2023-04-23T03:02:55.714Z,101139.63
2023-04-23T03:07:57.917Z,101134.34
2023-04-23T03:13:01.334Z,101139.25
2023-04-23T03:18:04.557Z,101141.72
2023-04-23T03:23:07.164Z,101143.06
2023-04-23T03:28:09.417Z,101143.56
2023-04-23T03:33:11.636Z,101143.06
2023-04-23T03:38:13.670Z,101147.44
2023-04-23T03:43:16.824Z,101144.69
2023-04-23T03:48:37.380Z,101147.44
2023-04-23T03:53:45.967Z,101140.53
2023-04-23T03:59:10.264Z,101146.31
2023-04-23T04:04:12.932Z,101148.03
2023-04-23T04:09:17.112Z,101141.72
2023-04-23T04:14:19.532Z,101146.69
2023-04-23T04:19:21.543Z,101159.03
2023-04-23T04:25:01.109Z,101151.59
2023-04-23T04:30:44.208Z,101160.06
2023-04-23T04:36:27.343Z,101166.09
2023-04-23T04:41:29.433Z,101163.66
2023-04-23T04:46:31.954Z,101148.63
2023-04-23T04:51:34.273Z,101155.53
2023-04-23T04:56:36.432Z,101154.19
2023-04-23T05:01:38.655Z,101148.16
2023-04-23T05:06:41.102Z,101154.78
2023-04-23T05:11:43.419Z,101151.44
2023-04-23T05:16:45.702Z,101156.94
2023-04-23T05:21:47.975Z,101154.72
2023-04-23T05:26:50.031Z,101159.63
2023-04-23T05:31:52.318Z,101171.44
2023-04-23T05:36:54.392Z,101162.91
2023-04-23T05:41:56.490Z,101172.25
2023-04-23T05:46:58.943Z,101173.59
2023-04-23T05:52:03.006Z,101171.91
2023-04-23T05:57:05.265Z,101177.03
2023-04-23T06:02:09.468Z,101173.41
2023-04-23T06:07:12.608Z,101178.59
2023-04-23T06:12:14.620Z,101181.34
2023-04-23T06:17:16.685Z,101187.09
2023-04-23T06:22:18.797Z,101193.13
2023-04-23T06:27:20.921Z,101191.44
2023-04-23T06:32:25.601Z,101203.09
2023-04-23T06:37:29.723Z,101202.13
2023-04-23T06:42:32.344Z,101188.53
2023-04-23T06:47:49.907Z,101177.38
2023-04-23T06:52:52.881Z,101186.28
2023-04-23T06:57:55.507Z,101186.41
2023-04-23T07:02:57.601Z,101194.00
2023-04-23T07:07:59.693Z,101196.66
2023-04-23T07:13:01.969Z,101196.50
2023-04-23T07:18:06.512Z,101197.34
2023-04-23T07:23:08.680Z,101203.19
2023-04-23T07:28:10.873Z,101200.19
2023-04-23T07:33:13.088Z,101202.53
2023-04-23T07:38:15.127Z,101197.63
2023-04-23T07:43:17.307Z,101192.50
2023-04-23T07:48:19.317Z,101193.94
2023-04-23T07:53:21.813Z,101197.22
2023-04-23T07:58:25.780Z,101197.09
2023-04-23T08:03:29.210Z,101198.66
2023-04-23T08:08:31.444Z,101196.50
2023-04-23T08:13:33.831Z,101202.69
2023-04-23T08:18:35.867Z,101195.53
2023-04-23T08:23:37.903Z,101199.28
2023-04-23T08:28:40.022Z,101206.59
2023-04-23T08:33:42.074Z,101198.31
2023-04-23T08:38:44.249Z,101191.00
2023-04-23T08:44:15.726Z,101189.50
2023-04-23T08:49:18.852Z,101184.22
2023-04-23T08:54:28.248Z,101181.94
2023-04-23T08:59:34.729Z,101177.22
2023-04-23T09:04:37.554Z,101183.56
2023-04-23T09:09:40.975Z,101180.47
2023-04-23T09:14:43.621Z,101190.41
2023-04-23T09:19:47.105Z,101185.56
2023-04-23T09:24:49.304Z,101178.59
2023-04-23T09:29:53.192Z,101170.03
2023-04-23T09:34:57.330Z,101187.91
2023-04-23T09:40:01.038Z,101175.50
2023-04-23T09:45:06.624Z,101173.56
2023-04-23T09:50:10.769Z,101185.94
2023-04-23T09:55:13.001Z,101187.25
2023-04-23T10:00:17.519Z,101177.16
2023-04-23T10:05:27.316Z,101185.84
2023-04-23T10:10:43.168Z,101177.84
2023-04-23T10:15:54.171Z,101178.19
2023-04-23T10:20:57.850Z,101183.75
2023-04-23T10:26:01.792Z,101172.69
2023-04-23T10:31:05.642Z,101188.06
2023-04-23T10:36:12.104Z,101174.22
2023-04-23T10:41:20.782Z,101178.34
2023-04-23T10:46:30.418Z,101171.50
2023-04-23T10:56:44.218Z,101179.03
2023-04-23T11:01:52.780Z,101169.41
2023-04-23T11:06:57.487Z,101163.41
2023-04-23T11:12:01.893Z,101175.88
2023-04-23T11:17:06.826Z,101148.75
2023-04-23T11:22:18.565Z,101149.19
2023-04-23T11:27:21.179Z,101133.53
2023-04-23T11:32:24.423Z,101124.97
2023-04-23T11:37:26.720Z,101149.34
2023-04-23T11:42:29.518Z,101123.59
2023-04-23T11:47:33.248Z,101105.69
2023-04-23T11:52:36.054Z,101107.38
2023-04-23T11:57:44.454Z,101113.25
2023-04-23T12:02:58.414Z,101097.13
2023-04-23T12:08:32.632Z,101101.63
2023-04-23T12:13:34.826Z,101091.63
2023-04-23T12:18:44.430Z,101089.81
2023-04-23T12:23:51.742Z,101084.50
2023-04-23T12:28:56.801Z,101089.44
2023-04-23T12:34:08.308Z,101080.53
2023-04-23T12:39:36.185Z,101076.28
2023-04-23T12:44:39.096Z,101071.97
2023-04-23T12:49:42.481Z,101050.13
2023-04-23T12:54:45.113Z,101039.31
2023-04-23T12:59:50.454Z,101050.22
2023-04-23T13:04:54.557Z,101031.63
2023-04-23T13:09:57.400Z,101028.50
2023-04-23T13:14:59.527Z,101024.97
2023-04-23T13:20:01.657Z,101016.03
2023-04-23T13:25:04.313Z,101012.34
2023-04-23T13:30:07.249Z,100991.81
2023-04-23T13:35:09.879Z,101001.91
2023-04-23T13:40:12.567Z,100990.91
2023-04-23T13:45:14.983Z,101000.59
2023-04-23T13:50:17.280Z,100999.66
2023-04-23T13:55:19.338Z,100999.53
2023-04-23T14:00:21.456Z,100984.06
2023-04-23T14:05:23.466Z,101001.31
2023-04-23T14:10:25.698Z,100993.47
2023-04-23T14:15:28.211Z,101000.31
2023-04-23T14:20:30.542Z,100978.38
2023-04-23T14:25:40.914Z,100983.19
2023-04-23T14:30:42.885Z,100981.25
2023-04-23T14:35:44.695Z,100968.72
2023-04-23T14:40:46.674Z,100963.84
2023-04-23T14:45:48.954Z,100962.81
2023-04-23T14:50:51.279Z,100953.34
2023-04-23T14:55:53.447Z,100957.16
2023-04-23T15:00:55.763Z,100959.78
2023-04-23T15:05:57.838Z,100949.72
2023-04-23T15:11:00.264Z,100955.72
2023-04-23T15:16:05.778Z,100949.72
2023-04-23T15:21:08.297Z,100940.97
2023-04-23T15:26:12.660Z,100946.50
2023-04-23T15:31:14.849Z,100936.47
2023-04-23T15:36:17.184Z,100909.03
2023-04-23T15:41:19.365Z,100917.97
2023-04-23T15:46:21.794Z,100920.59
2023-04-23T15:51:23.995Z,100917.00
2023-04-23T15:56:26.870Z,100918.97
2023-04-23T16:01:29.883Z,100909.53
2023-04-23T16:06:32.114Z,100912.78
2023-04-23T16:11:38.393Z,100905.00
2023-04-23T16:16:40.601Z,100899.78
2023-04-23T16:21:42.761Z,100899.78
2023-04-23T16:26:45.060Z,100889.88
2023-04-23T16:31:47.373Z,100897.38
2023-04-23T16:36:49.660Z,100899.31
2023-04-23T16:41:52.579Z,100892.53
2023-04-23T16:46:54.624Z,100894.16
2023-04-23T16:51:56.871Z,100903.41
2023-04-23T16:56:59.172Z,100905.22
2023-04-23T17:02:01.384Z,100897.25
2023-04-23T17:07:03.698Z,100904.41
2023-04-23T17:12:05.740Z,100897.56
2023-04-23T17:17:07.927Z,100896.44
2023-04-23T17:22:10.821Z,100897.56
2023-04-23T17:27:12.779Z,100902.94
2023-04-23T17:32:15.192Z,100908.31
2023-04-23T17:37:17.360Z,100905.88
2023-04-23T17:42:19.829Z,100917.91
2023-04-23T17:47:22.275Z,100931.56
2023-04-23T17:52:24.836Z,100948.44
2023-04-23T17:57:27.318Z,100940.75
2023-04-23T18:02:29.545Z,100962.69
2023-04-23T18:07:31.873Z,100972.75
2023-04-23T18:12:34.516Z,100983.94
2023-04-23T18:17:36.782Z,100978.03
2023-04-23T18:22:41.309Z,100976.06
2023-04-23T18:27:43.379Z,100973.56
2023-04-23T18:32:59.763Z,100978.56
2023-04-23T18:38:09.986Z,100989.56
2023-04-23T18:43:12.175Z,100993.06
2023-04-23T18:48:47.751Z,100997.09
2023-04-23T18:53:50.210Z,101033.59
2023-04-23T18:58:52.327Z,101080.53
2023-04-23T19:03:54.967Z,101079.41
2023-04-23T19:08:57.277Z,101099.84
2023-04-23T19:13:59.359Z,101099.34
2023-04-23T19:19:01.535Z,101115.91
2023-04-23T19:24:03.618Z,101140.13
2023-04-23T19:29:05.950Z,101152.28
2023-04-23T19:34:08.337Z,101173.88
2023-04-23T19:39:10.719Z,101182.28
2023-04-23T19:44:12.752Z,101200.56
2023-04-23T19:49:14.757Z,101198.03
2023-04-23T19:54:17.096Z,101219.06
2023-04-23T19:59:21.313Z,101236.44
2023-04-23T20:04:23.543Z,101257.16
2023-04-23T20:09:25.901Z,101285.84
2023-04-23T20:14:29.088Z,101293.84
2023-04-23T20:19:31.446Z,101307.69
2023-04-23T20:24:33.856Z,101318.56
2023-04-23T20:29:36.153Z,101340.72
2023-04-23T20:34:38.360Z,101354.88
2023-04-23T20:39:40.597Z,101349.97
2023-04-23T20:44:45.704Z,101342.38
2023-04-23T20:49:47.841Z,101354.19
2023-04-23T20:54:50.047Z,101340.13
2023-04-23T20:59:52.118Z,101353.91
2023-04-23T21:04:54.002Z,101346.16
2023-04-23T21:09:56.061Z,101356.66
2023-04-23T21:14:58.528Z,101375.44
2023-04-23T21:20:00.888Z,101369.66
2023-04-23T21:25:03.777Z,101357.81
2023-04-23T21:30:14.497Z,101351.22
2023-04-23T21:35:16.638Z,101374.41
2023-04-23T21:40:18.882Z,101401.34
2023-04-23T21:45:21.128Z,101388.63
2023-04-23T21:50:24.780Z,101392.19
2023-04-23T21:55:28.137Z,101403.78
2023-04-23T22:00:30.254Z,101427.22
2023-04-23T22:05:32.608Z,101432.13
2023-04-23T22:10:34.701Z,101422.81
2023-04-23T22:15:37.018Z,101393.72
2023-04-23T22:20:39.210Z,101381.69
2023-04-23T22:25:41.373Z,101382.50
2023-04-23T22:30:43.941Z,101367.63
2023-04-23T22:35:46.291Z,101394.31
2023-04-23T22:40:48.253Z,101398.72
2023-04-23T22:45:50.159Z,101403.22
2023-04-23T22:50:52.673Z,101398.06
2023-04-23T22:55:55.096Z,101396.66
2023-04-23T23:00:57.120Z,101367.50
2023-04-23T23:05:59.028Z,101415.34
2023-04-23T23:11:01.187Z,101359.78
2023-04-23T23:16:05.923Z,101364.47
2023-04-23T23:21:07.994Z,101395.53
2023-04-23T23:26:09.983Z,101392.22
2023-04-23T23:31:12.270Z,101356.78
2023-04-23T23:36:14.270Z,101320.63
2023-04-23T23:41:16.254Z,101324.28
2023-04-23T23:46:18.592Z,101354.00
2023-04-23T23:51:20.746Z,101362.50
2023-04-23T23:56:22.871Z,101364.38
